sensor_id;sensor_type;location;lat;lon;timestamp;noise_LAeq;noise_LA_min;noise_LA_max;noise_LA01;noise_LA95
71230;Laerm;57282;52.514;13.458;2023-01-01T00:02:03;70.26;61.30;92.35;;
71230;Laerm;57282;52.514;13.458;2023-01-01T00:04:32;69.35;58.01;91.69;;
71230;Laerm;57282;52.514;13.458;2023-01-01T00:06:58;69.60;59.17;83.35;;
71230;Laerm;57282;52.514;13.458;2023-01-01T00:09:25;70.95;60.83;100.96;;
71230;Laerm;57282;52.514;13.458;2023-01-01T00:12:10;75.90;57.99;107.10;;
71230;Laerm;57282;52.514;13.458;2023-01-01T00:14:36;76.47;59.46;104.60;;
71230;Laerm;57282;52.514;13.458;2023-01-01T00:17:08;76.84;61.13;105.17;;
71230;Laerm;57282;52.514;13.458;2023-01-01T00:19:35;76.99;58.62;98.53;;
71230;Laerm;57282;52.514;13.458;2023-01-01T00:22:02;69.15;54.62;95.53;;
71230;Laerm;57282;52.514;13.458;2023-01-01T00:24:29;70.04;53.65;95.17;;
71230;Laerm;57282;52.514;13.458;2023-01-01T00:26:56;72.62;53.31;97.37;;
71230;Laerm;57282;52.514;13.458;2023-01-01T00:29:22;66.14;52.54;94.79;;
71230;Laerm;57282;52.514;13.458;2023-01-01T00:31:49;68.69;54.43;91.32;;
71230;Laerm;57282;52.514;13.458;2023-01-01T00:34:17;74.96;53.53;100.97;;
71230;Laerm;57282;52.514;13.458;2023-01-01T00:36:44;69.08;53.12;98.98;;
71230;Laerm;57282;52.514;13.458;2023-01-01T00:39:10;67.47;53.13;93.28;;
71230;Laerm;57282;52.514;13.458;2023-01-01T00:41:37;72.38;52.83;97.34;;
71230;Laerm;57282;52.514;13.458;2023-01-01T00:44:04;77.34;51.81;99.55;;
71230;Laerm;57282;52.514;13.458;2023-01-01T00:46:30;63.53;51.64;79.26;;
71230;Laerm;57282;52.514;13.458;2023-01-01T00:48:57;70.98;51.12;103.47;;
71230;Laerm;57282;52.514;13.458;2023-01-01T00:51:25;70.80;51.57;100.67;;
71230;Laerm;57282;52.514;13.458;2023-01-01T00:53:52;68.46;53.12;94.09;;
71230;Laerm;57282;52.514;13.458;2023-01-01T00:56:19;66.13;50.84;83.09;;
71230;Laerm;57282;52.514;13.458;2023-01-01T00:58:45;65.89;52.84;91.26;;
71230;Laerm;57282;52.514;13.458;2023-01-01T01:01:12;64.02;51.73;80.66;;
71230;Laerm;57282;52.514;13.458;2023-01-01T01:03:40;64.92;51.31;84.02;;
71230;Laerm;57282;52.514;13.458;2023-01-01T01:06:10;67.68;51.26;91.89;;
71230;Laerm;57282;52.514;13.458;2023-01-01T01:08:42;77.14;51.41;99.53;;
71230;Laerm;57282;52.514;13.458;2023-01-01T01:11:13;64.61;50.99;78.92;;
71230;Laerm;57282;52.514;13.458;2023-01-01T01:13:40;76.68;50.58;103.94;;
71230;Laerm;57282;52.514;13.458;2023-01-01T01:16:09;66.18;51.19;94.97;;
71230;Laerm;57282;52.514;13.458;2023-01-01T01:18:37;66.46;49.69;92.86;;
71230;Laerm;57282;52.514;13.458;2023-01-01T01:21:04;73.43;52.24;106.06;;
71230;Laerm;57282;52.514;13.458;2023-01-01T01:23:31;79.97;49.47;108.68;;
71230;Laerm;57282;52.514;13.458;2023-01-01T01:26:08;78.13;50.95;107.70;;
71230;Laerm;57282;52.514;13.458;2023-01-01T01:28:35;63.91;51.17;89.07;;
71230;Laerm;57282;52.514;13.458;2023-01-01T01:31:03;67.59;51.11;97.24;;
71230;Laerm;57282;52.514;13.458;2023-01-01T01:33:29;64.74;50.35;82.09;;
71230;Laerm;57282;52.514;13.458;2023-01-01T01:35:56;63.74;51.00;78.84;;
71230;Laerm;57282;52.514;13.458;2023-01-01T01:38:23;68.60;49.80;101.05;;
71230;Laerm;57282;52.514;13.458;2023-01-01T01:40:50;65.91;50.76;89.23;;
71230;Laerm;57282;52.514;13.458;2023-01-01T01:43:23;67.13;47.72;86.96;;
71230;Laerm;57282;52.514;13.458;2023-01-01T01:45:53;67.39;48.53;90.68;;
71230;Laerm;57282;52.514;13.458;2023-01-01T01:48:22;64.79;49.95;81.59;;
71230;Laerm;57282;52.514;13.458;2023-01-01T01:50:51;66.67;50.59;81.08;;
71230;Laerm;57282;52.514;13.458;2023-01-01T01:53:24;64.78;49.64;79.42;;
71230;Laerm;57282;52.514;13.458;2023-01-01T01:55:57;64.20;51.01;82.91;;
71230;Laerm;57282;52.514;13.458;2023-01-01T01:58:29;63.24;49.02;80.63;;
71230;Laerm;57282;52.514;13.458;2023-01-01T02:00:57;65.67;49.12;78.64;;
71230;Laerm;57282;52.514;13.458;2023-01-01T02:03:31;66.49;51.76;84.55;;
71230;Laerm;57282;52.514;13.458;2023-01-01T02:06:01;68.79;49.28;96.32;;
71230;Laerm;57282;52.514;13.458;2023-01-01T02:08:28;67.84;49.26;88.65;;
71230;Laerm;57282;52.514;13.458;2023-01-01T02:10:55;66.30;49.02;79.95;;
71230;Laerm;57282;52.514;13.458;2023-01-01T02:13:22;66.68;48.42;81.75;;
71230;Laerm;57282;52.514;13.458;2023-01-01T02:15:55;63.02;47.49;82.08;;
71230;Laerm;57282;52.514;13.458;2023-01-01T02:18:35;66.53;50.80;82.17;;
71230;Laerm;57282;52.514;13.458;2023-01-01T02:21:10;63.67;46.56;85.13;;
71230;Laerm;57282;52.514;13.458;2023-01-01T02:24:03;66.07;46.33;88.34;;
71230;Laerm;57282;52.514;13.458;2023-01-01T02:26:52;69.07;48.08;95.20;;
71230;Laerm;57282;52.514;13.458;2023-01-01T02:29:32;63.68;45.90;81.03;;
71230;Laerm;57282;52.514;13.458;2023-01-01T02:32:09;64.37;45.10;80.43;;
71230;Laerm;57282;52.514;13.458;2023-01-01T02:34:41;76.46;47.84;104.44;;
71230;Laerm;57282;52.514;13.458;2023-01-01T02:37:13;66.97;45.99;83.59;;
71230;Laerm;57282;52.514;13.458;2023-01-01T02:39:46;65.08;47.83;78.05;;
71230;Laerm;57282;52.514;13.458;2023-01-01T02:42:16;61.96;48.13;76.97;;
71230;Laerm;57282;52.514;13.458;2023-01-01T02:44:48;63.48;48.27;77.91;;
71230;Laerm;57282;52.514;13.458;2023-01-01T02:47:19;60.03;46.68;73.67;;
71230;Laerm;57282;52.514;13.458;2023-01-01T02:49:58;68.18;47.39;93.57;;
71230;Laerm;57282;52.514;13.458;2023-01-01T02:53:05;70.66;48.23;99.16;;
71230;Laerm;57282;52.514;13.458;2023-01-01T02:55:46;72.28;46.96;103.77;;
71230;Laerm;57282;52.514;13.458;2023-01-01T02:58:22;81.16;46.36;110.58;;
71230;Laerm;57282;52.514;13.458;2023-01-01T03:01:16;64.30;46.53;82.07;;
71230;Laerm;57282;52.514;13.458;2023-01-01T03:03:59;66.64;46.75;79.89;;
71230;Laerm;57282;52.514;13.458;2023-01-01T03:06:36;61.88;44.93;77.16;;
71230;Laerm;57282;52.514;13.458;2023-01-01T03:09:14;64.07;45.39;83.28;;
71230;Laerm;57282;52.514;13.458;2023-01-01T03:11:56;66.66;47.06;84.94;;
71230;Laerm;57282;52.514;13.458;2023-01-01T03:14:37;65.78;47.01;81.91;;
71230;Laerm;57282;52.514;13.458;2023-01-01T03:17:16;63.80;47.97;78.71;;
71230;Laerm;57282;52.514;13.458;2023-01-01T03:19:48;60.39;47.73;72.38;;
71230;Laerm;57282;52.514;13.458;2023-01-01T03:22:19;75.21;47.09;102.82;;
71230;Laerm;57282;52.514;13.458;2023-01-01T03:24:53;65.95;45.76;82.87;;
71230;Laerm;57282;52.514;13.458;2023-01-01T03:27:27;66.14;47.56;83.03;;
71230;Laerm;57282;52.514;13.458;2023-01-01T03:30:00;66.20;47.84;83.65;;
71230;Laerm;57282;52.514;13.458;2023-01-01T03:32:34;63.72;45.85;80.53;;
71230;Laerm;57282;52.514;13.458;2023-01-01T03:35:22;75.43;48.93;105.00;;
71230;Laerm;57282;52.514;13.458;2023-01-01T03:37:54;67.58;49.00;79.26;;
71230;Laerm;57282;52.514;13.458;2023-01-01T03:40:25;67.45;48.50;82.03;;
71230;Laerm;57282;52.514;13.458;2023-01-01T03:42:58;66.89;48.67;82.08;;
71230;Laerm;57282;52.514;13.458;2023-01-01T03:45:32;68.33;50.36;81.32;;
71230;Laerm;57282;52.514;13.458;2023-01-01T03:48:02;66.67;50.61;81.60;;
71230;Laerm;57282;52.514;13.458;2023-01-01T03:50:42;65.24;44.20;80.78;;
71230;Laerm;57282;52.514;13.458;2023-01-01T03:53:26;63.51;43.21;81.55;;
71230;Laerm;57282;52.514;13.458;2023-01-01T03:56:05;64.73;43.92;80.25;;
71230;Laerm;57282;52.514;13.458;2023-01-01T03:58:40;62.56;45.30;77.53;;
71230;Laerm;57282;52.514;13.458;2023-01-01T04:01:15;63.96;44.26;81.12;;
71230;Laerm;57282;52.514;13.458;2023-01-01T04:03:45;67.34;44.23;85.56;;
71230;Laerm;57282;52.514;13.458;2023-01-01T04:06:13;64.72;45.00;80.42;;
71230;Laerm;57282;52.514;13.458;2023-01-01T04:08:42;60.43;44.49;76.07;;
71230;Laerm;57282;52.514;13.458;2023-01-01T04:11:17;62.56;47.12;81.69;;
71230;Laerm;57282;52.514;13.458;2023-01-01T04:14:03;58.54;43.83;77.40;;
71230;Laerm;57282;52.514;13.458;2023-01-01T04:16:29;63.03;44.92;79.93;;
71230;Laerm;57282;52.514;13.458;2023-01-01T04:18:57;57.99;43.17;72.34;;
71230;Laerm;57282;52.514;13.458;2023-01-01T04:21:24;64.70;46.70;81.63;;
71230;Laerm;57282;52.514;13.458;2023-01-01T04:23:51;64.35;44.93;82.14;;
71230;Laerm;57282;52.514;13.458;2023-01-01T04:26:17;61.95;43.07;81.10;;
71230;Laerm;57282;52.514;13.458;2023-01-01T04:28:44;59.00;42.97;74.90;;
71230;Laerm;57282;52.514;13.458;2023-01-01T04:31:11;55.96;44.03;69.17;;
71230;Laerm;57282;52.514;13.458;2023-01-01T04:33:37;69.31;41.51;97.31;;
71230;Laerm;57282;52.514;13.458;2023-01-01T04:36:08;72.60;42.67;99.96;;
71230;Laerm;57282;52.514;13.458;2023-01-01T04:38:36;75.88;43.18;100.06;;
71230;Laerm;57282;52.514;13.458;2023-01-01T04:41:04;71.99;42.50;98.68;;
71230;Laerm;57282;52.514;13.458;2023-01-01T04:43:32;72.56;44.59;102.77;;
71230;Laerm;57282;52.514;13.458;2023-01-01T04:46:01;68.02;42.72;90.63;;
71230;Laerm;57282;52.514;13.458;2023-01-01T04:48:30;79.90;44.09;100.24;;
71230;Laerm;57282;52.514;13.458;2023-01-01T04:50:59;77.98;45.54;102.48;;
71230;Laerm;57282;52.514;13.458;2023-01-01T04:53:32;56.92;43.48;74.84;;
71230;Laerm;57282;52.514;13.458;2023-01-01T04:56:03;62.34;40.66;80.51;;
71230;Laerm;57282;52.514;13.458;2023-01-01T04:58:30;61.06;42.13;78.00;;
71230;Laerm;57282;52.514;13.458;2023-01-01T05:00:57;59.83;41.50;74.63;;
71230;Laerm;57282;52.514;13.458;2023-01-01T05:03:24;62.55;42.19;77.74;;
71230;Laerm;57282;52.514;13.458;2023-01-01T05:05:59;59.14;42.17;78.11;;
71230;Laerm;57282;52.514;13.458;2023-01-01T05:08:29;62.20;42.80;78.31;;
71230;Laerm;57282;52.514;13.458;2023-01-01T05:10:59;63.33;43.14;79.17;;
71230;Laerm;57282;52.514;13.458;2023-01-01T05:13:27;64.80;43.21;81.47;;
71230;Laerm;57282;52.514;13.458;2023-01-01T05:15:53;59.92;41.98;72.74;;
71230;Laerm;57282;52.514;13.458;2023-01-01T05:18:21;62.57;39.66;81.48;;
71230;Laerm;57282;52.514;13.458;2023-01-01T05:20:47;67.09;41.43;88.09;;
71230;Laerm;57282;52.514;13.458;2023-01-01T05:23:14;62.79;44.21;76.84;;
71230;Laerm;57282;52.514;13.458;2023-01-01T05:25:43;58.09;43.90;70.87;;
71230;Laerm;57282;52.514;13.458;2023-01-01T05:28:10;56.86;44.18;73.73;;
71230;Laerm;57282;52.514;13.458;2023-01-01T05:30:38;63.84;41.97;77.92;;
71230;Laerm;57282;52.514;13.458;2023-01-01T05:33:05;49.53;41.83;73.85;;
71230;Laerm;57282;52.514;13.458;2023-01-01T05:35:32;60.86;43.42;75.00;;
71230;Laerm;57282;52.514;13.458;2023-01-01T05:37:58;60.48;42.59;80.58;;
71230;Laerm;57282;52.514;13.458;2023-01-01T05:40:25;60.26;42.58;77.55;;
71230;Laerm;57282;52.514;13.458;2023-01-01T05:42:53;61.70;40.35;78.23;;
71230;Laerm;57282;52.514;13.458;2023-01-01T05:45:20;63.91;41.78;84.43;;
71230;Laerm;57282;52.514;13.458;2023-01-01T05:47:47;57.28;41.77;76.01;;
71230;Laerm;57282;52.514;13.458;2023-01-01T05:50:13;59.19;40.86;77.90;;
71230;Laerm;57282;52.514;13.458;2023-01-01T05:52:40;60.83;39.24;76.02;;
71230;Laerm;57282;52.514;13.458;2023-01-01T05:55:07;82.29;41.68;111.62;;
71230;Laerm;57282;52.514;13.458;2023-01-01T05:57:34;80.64;41.89;110.82;;
71230;Laerm;57282;52.514;13.458;2023-01-01T06:00:03;81.97;42.68;111.89;;
71230;Laerm;57282;52.514;13.458;2023-01-01T06:02:30;63.27;43.11;79.19;;
71230;Laerm;57282;52.514;13.458;2023-01-01T06:04:57;61.76;41.57;78.70;;
71230;Laerm;57282;52.514;13.458;2023-01-01T06:07:23;60.81;40.92;78.15;;
71230;Laerm;57282;52.514;13.458;2023-01-01T06:09:50;59.97;42.32;78.55;;
71230;Laerm;57282;52.514;13.458;2023-01-01T06:12:17;52.59;41.05;71.28;;
71230;Laerm;57282;52.514;13.458;2023-01-01T06:14:43;54.96;41.43;72.05;;
71230;Laerm;57282;52.514;13.458;2023-01-01T06:17:11;69.35;42.60;94.67;;
71230;Laerm;57282;52.514;13.458;2023-01-01T06:19:38;69.70;40.73;94.74;;
71230;Laerm;57282;52.514;13.458;2023-01-01T06:22:05;57.66;40.27;78.02;;
71230;Laerm;57282;52.514;13.458;2023-01-01T06:24:31;58.95;40.12;77.46;;
71230;Laerm;57282;52.514;13.458;2023-01-01T06:26:58;60.69;39.97;76.33;;
71230;Laerm;57282;52.514;13.458;2023-01-01T06:29:24;57.67;40.89;78.74;;
71230;Laerm;57282;52.514;13.458;2023-01-01T06:31:51;62.12;41.61;79.84;;
71230;Laerm;57282;52.514;13.458;2023-01-01T06:34:19;65.32;41.55;78.69;;
71230;Laerm;57282;52.514;13.458;2023-01-01T06:36:46;60.40;39.77;80.42;;
71230;Laerm;57282;52.514;13.458;2023-01-01T06:39:12;61.92;39.35;77.99;;
71230;Laerm;57282;52.514;13.458;2023-01-01T06:41:39;56.35;38.70;75.75;;
71230;Laerm;57282;52.514;13.458;2023-01-01T06:44:06;57.04;39.92;76.06;;
71230;Laerm;57282;52.514;13.458;2023-01-01T06:46:34;61.72;40.61;81.90;;
71230;Laerm;57282;52.514;13.458;2023-01-01T06:49:04;56.08;41.93;72.96;;
71230;Laerm;57282;52.514;13.458;2023-01-01T06:51:36;61.78;43.83;79.90;;
71230;Laerm;57282;52.514;13.458;2023-01-01T06:54:04;58.40;42.32;75.74;;
71230;Laerm;57282;52.514;13.458;2023-01-01T06:56:31;60.09;40.75;76.86;;
71230;Laerm;57282;52.514;13.458;2023-01-01T06:58:59;64.57;42.67;83.17;;
71230;Laerm;57282;52.514;13.458;2023-01-01T07:01:28;62.84;43.66;80.07;;
71230;Laerm;57282;52.514;13.458;2023-01-01T07:03:58;62.57;39.51;79.87;;
71230;Laerm;57282;52.514;13.458;2023-01-01T07:06:26;61.07;40.87;76.63;;
71230;Laerm;57282;52.514;13.458;2023-01-01T07:08:55;58.64;42.57;77.56;;
71230;Laerm;57282;52.514;13.458;2023-01-01T07:11:24;62.76;42.18;88.97;;
71230;Laerm;57282;52.514;13.458;2023-01-01T07:13:51;63.82;43.40;83.16;;
71230;Laerm;57282;52.514;13.458;2023-01-01T07:16:18;57.82;42.63;79.31;;
71230;Laerm;57282;52.514;13.458;2023-01-01T07:18:45;63.17;42.97;83.40;;
71230;Laerm;57282;52.514;13.458;2023-01-01T07:21:27;62.39;40.87;83.10;;
71230;Laerm;57282;52.514;13.458;2023-01-01T07:23:56;48.15;40.32;64.26;;
71230;Laerm;57282;52.514;13.458;2023-01-01T07:26:24;59.97;38.98;77.99;;
71230;Laerm;57282;52.514;13.458;2023-01-01T07:28:51;61.21;41.01;76.90;;
71230;Laerm;57282;52.514;13.458;2023-01-01T07:31:18;56.29;39.70;76.77;;
71230;Laerm;57282;52.514;13.458;2023-01-01T07:33:44;71.86;39.25;89.89;;
71230;Laerm;57282;52.514;13.458;2023-01-01T07:36:12;60.83;40.84;78.64;;
71230;Laerm;57282;52.514;13.458;2023-01-01T07:38:38;59.61;40.17;81.26;;
71230;Laerm;57282;52.514;13.458;2023-01-01T07:41:07;61.62;40.77;79.76;;
71230;Laerm;57282;52.514;13.458;2023-01-01T07:43:33;61.61;41.10;77.64;;
71230;Laerm;57282;52.514;13.458;2023-01-01T07:46:01;63.81;37.97;83.67;;
71230;Laerm;57282;52.514;13.458;2023-01-01T07:48:28;66.22;38.81;82.94;;
71230;Laerm;57282;52.514;13.458;2023-01-01T07:50:55;65.56;41.33;84.87;;
71230;Laerm;57282;52.514;13.458;2023-01-01T07:53:21;49.32;39.40;64.47;;
71230;Laerm;57282;52.514;13.458;2023-01-01T07:55:48;49.53;40.79;64.16;;
71230;Laerm;57282;52.514;13.458;2023-01-01T07:58:16;50.58;42.48;60.81;;
71230;Laerm;57282;52.514;13.458;2023-01-01T08:00:45;55.09;41.94;74.29;;
71230;Laerm;57282;52.514;13.458;2023-01-01T08:03:13;56.89;41.79;75.36;;
71230;Laerm;57282;52.514;13.458;2023-01-01T08:05:40;61.14;41.52;77.78;;
71230;Laerm;57282;52.514;13.458;2023-01-01T08:08:08;56.13;41.99;74.13;;
71230;Laerm;57282;52.514;13.458;2023-01-01T08:10:35;65.31;43.11;82.59;;
71230;Laerm;57282;52.514;13.458;2023-01-01T08:13:05;63.88;43.32;82.20;;
71230;Laerm;57282;52.514;13.458;2023-01-01T08:15:34;60.84;43.44;79.76;;
71230;Laerm;57282;52.514;13.458;2023-01-01T08:18:04;57.13;41.18;76.14;;
71230;Laerm;57282;52.514;13.458;2023-01-01T08:20:32;62.79;42.56;80.08;;
71230;Laerm;57282;52.514;13.458;2023-01-01T08:22:59;60.79;41.61;78.81;;
71230;Laerm;57282;52.514;13.458;2023-01-01T08:25:25;48.02;39.69;62.25;;
71230;Laerm;57282;52.514;13.458;2023-01-01T08:27:52;61.47;40.06;80.28;;
71230;Laerm;57282;52.514;13.458;2023-01-01T08:30:19;61.30;39.96;79.00;;
71230;Laerm;57282;52.514;13.458;2023-01-01T08:32:47;62.07;42.27;79.96;;
71230;Laerm;57282;52.514;13.458;2023-01-01T08:35:14;54.46;42.19;69.55;;
71230;Laerm;57282;52.514;13.458;2023-01-01T08:37:41;56.64;41.16;74.40;;
71230;Laerm;57282;52.514;13.458;2023-01-01T08:40:11;49.21;41.01;60.86;;
71230;Laerm;57282;52.514;13.458;2023-01-01T08:42:39;57.88;39.51;74.98;;
71230;Laerm;57282;52.514;13.458;2023-01-01T08:45:07;56.04;39.29;73.77;;
71230;Laerm;57282;52.514;13.458;2023-01-01T08:47:34;59.57;39.00;76.23;;
71230;Laerm;57282;52.514;13.458;2023-01-01T08:50:03;61.67;38.68;80.32;;
71230;Laerm;57282;52.514;13.458;2023-01-01T08:52:31;58.05;40.18;75.85;;
71230;Laerm;57282;52.514;13.458;2023-01-01T08:54:57;60.21;39.98;78.31;;
71230;Laerm;57282;52.514;13.458;2023-01-01T08:57:28;64.61;39.73;82.51;;
71230;Laerm;57282;52.514;13.458;2023-01-01T08:59:55;59.59;40.37;76.29;;
71230;Laerm;57282;52.514;13.458;2023-01-01T09:02:22;49.47;41.27;63.66;;
71230;Laerm;57282;52.514;13.458;2023-01-01T09:04:49;51.28;41.14;76.17;;
71230;Laerm;57282;52.514;13.458;2023-01-01T09:07:17;61.31;40.49;76.97;;
71230;Laerm;57282;52.514;13.458;2023-01-01T09:09:43;59.12;41.96;80.79;;
71230;Laerm;57282;52.514;13.458;2023-01-01T09:12:15;63.80;41.40;81.14;;
71230;Laerm;57282;52.514;13.458;2023-01-01T09:14:42;68.14;40.14;85.86;;
71230;Laerm;57282;52.514;13.458;2023-01-01T09:17:12;61.22;39.88;78.76;;
71230;Laerm;57282;52.514;13.458;2023-01-01T09:19:38;57.82;40.10;74.44;;
71230;Laerm;57282;52.514;13.458;2023-01-01T09:22:08;67.23;40.50;86.95;;
71230;Laerm;57282;52.514;13.458;2023-01-01T09:24:36;57.46;41.34;80.15;;
71230;Laerm;57282;52.514;13.458;2023-01-01T09:27:03;65.21;40.88;82.69;;
71230;Laerm;57282;52.514;13.458;2023-01-01T09:29:30;59.07;41.99;77.94;;
71230;Laerm;57282;52.514;13.458;2023-01-01T09:31:57;57.08;39.29;74.66;;
71230;Laerm;57282;52.514;13.458;2023-01-01T09:34:24;46.25;41.36;61.94;;
71230;Laerm;57282;52.514;13.458;2023-01-01T09:36:50;57.76;38.80;79.27;;
71230;Laerm;57282;52.514;13.458;2023-01-01T09:39:17;55.89;40.63;72.61;;
71230;Laerm;57282;52.514;13.458;2023-01-01T09:42:01;61.09;41.58;76.72;;
71230;Laerm;57282;52.514;13.458;2023-01-01T09:44:54;58.69;41.20;76.62;;
71230;Laerm;57282;52.514;13.458;2023-01-01T09:47:32;62.63;38.90;81.76;;
71230;Laerm;57282;52.514;13.458;2023-01-01T09:50:04;63.99;41.40;81.99;;
71230;Laerm;57282;52.514;13.458;2023-01-01T09:52:40;62.66;41.27;79.93;;
71230;Laerm;57282;52.514;13.458;2023-01-01T09:55:20;64.25;40.76;79.77;;
71230;Laerm;57282;52.514;13.458;2023-01-01T09:57:50;56.44;41.75;75.51;;
71230;Laerm;57282;52.514;13.458;2023-01-01T10:00:18;61.83;42.94;76.92;;
71230;Laerm;57282;52.514;13.458;2023-01-01T10:03:06;62.76;42.59;78.11;;
71230;Laerm;57282;52.514;13.458;2023-01-01T10:05:48;62.57;41.63;79.29;;
71230;Laerm;57282;52.514;13.458;2023-01-01T10:08:32;64.59;41.23;86.60;;
71230;Laerm;57282;52.514;13.458;2023-01-01T10:11:08;57.84;41.89;74.82;;
71230;Laerm;57282;52.514;13.458;2023-01-01T10:13:42;58.91;44.31;74.25;;
71230;Laerm;57282;52.514;13.458;2023-01-01T10:16:15;61.25;41.26;77.79;;
71230;Laerm;57282;52.514;13.458;2023-01-01T10:18:52;64.29;42.66;79.79;;
71230;Laerm;57282;52.514;13.458;2023-01-01T10:21:25;63.95;40.90;82.63;;
71230;Laerm;57282;52.514;13.458;2023-01-01T10:23:59;64.43;40.42;81.11;;
71230;Laerm;57282;52.514;13.458;2023-01-01T10:26:29;61.17;42.16;79.54;;
71230;Laerm;57282;52.514;13.458;2023-01-01T10:29:03;64.15;47.33;79.04;;
71230;Laerm;57282;52.514;13.458;2023-01-01T10:31:33;63.27;41.11;79.16;;
71230;Laerm;57282;52.514;13.458;2023-01-01T10:34:13;67.22;42.68;82.74;;
71230;Laerm;57282;52.514;13.458;2023-01-01T10:36:42;66.68;42.89;80.79;;
71230;Laerm;57282;52.514;13.458;2023-01-01T10:39:15;67.33;41.50;84.37;;
71230;Laerm;57282;52.514;13.458;2023-01-01T10:41:43;61.99;40.49;80.76;;
71230;Laerm;57282;52.514;13.458;2023-01-01T10:44:15;63.55;40.74;77.25;;
71230;Laerm;57282;52.514;13.458;2023-01-01T10:46:52;63.23;41.01;78.25;;
71230;Laerm;57282;52.514;13.458;2023-01-01T10:49:22;65.18;44.33;79.22;;
71230;Laerm;57282;52.514;13.458;2023-01-01T10:51:53;61.86;41.18;77.76;;
71230;Laerm;57282;52.514;13.458;2023-01-01T10:54:33;59.96;38.83;77.75;;
71230;Laerm;57282;52.514;13.458;2023-01-01T10:57:13;61.42;41.39;75.39;;
71230;Laerm;57282;52.514;13.458;2023-01-01T10:59:43;62.30;43.36;80.18;;
71230;Laerm;57282;52.514;13.458;2023-01-01T11:02:20;59.96;43.25;73.44;;
71230;Laerm;57282;52.514;13.458;2023-01-01T11:04:48;62.95;43.47;79.65;;
71230;Laerm;57282;52.514;13.458;2023-01-01T11:07:26;63.31;40.44;81.30;;
71230;Laerm;57282;52.514;13.458;2023-01-01T11:09:58;62.07;41.81;78.11;;
71230;Laerm;57282;52.514;13.458;2023-01-01T11:12:29;61.64;45.67;78.34;;
71230;Laerm;57282;52.514;13.458;2023-01-01T11:14:58;63.08;42.70;84.93;;
71230;Laerm;57282;52.514;13.458;2023-01-01T11:17:28;62.82;43.05;77.64;;
71230;Laerm;57282;52.514;13.458;2023-01-01T11:19:58;63.50;44.27;77.76;;
71230;Laerm;57282;52.514;13.458;2023-01-01T11:22:38;61.59;42.65;77.20;;
71230;Laerm;57282;52.514;13.458;2023-01-01T11:25:19;64.92;45.12;75.74;;
71230;Laerm;57282;52.514;13.458;2023-01-01T11:27:48;56.40;42.53;71.91;;
71230;Laerm;57282;52.514;13.458;2023-01-01T11:30:23;64.09;44.72;79.57;;
71230;Laerm;57282;52.514;13.458;2023-01-01T11:32:56;61.99;43.27;76.67;;
71230;Laerm;57282;52.514;13.458;2023-01-01T11:35:26;61.74;41.42;77.60;;
71230;Laerm;57282;52.514;13.458;2023-01-01T11:37:56;65.48;42.05;80.34;;
71230;Laerm;57282;52.514;13.458;2023-01-01T11:40:28;65.43;39.51;79.28;;
71230;Laerm;57282;52.514;13.458;2023-01-01T11:43:00;65.98;43.76;82.49;;
71230;Laerm;57282;52.514;13.458;2023-01-01T11:45:32;56.45;43.93;71.26;;
71230;Laerm;57282;52.514;13.458;2023-01-01T11:48:02;60.90;41.78;77.75;;
71230;Laerm;57282;52.514;13.458;2023-01-01T11:50:38;64.82;43.89;77.58;;
71230;Laerm;57282;52.514;13.458;2023-01-01T11:53:26;63.44;45.88;78.33;;
71230;Laerm;57282;52.514;13.458;2023-01-01T11:56:02;63.40;48.59;77.37;;
71230;Laerm;57282;52.514;13.458;2023-01-01T11:58:40;65.49;40.29;81.30;;
71230;Laerm;57282;52.514;13.458;2023-01-01T12:01:17;62.61;43.78;78.75;;
71230;Laerm;57282;52.514;13.458;2023-01-01T12:03:52;63.74;41.84;76.99;;
71230;Laerm;57282;52.514;13.458;2023-01-01T12:06:27;66.93;45.54;81.28;;
71230;Laerm;57282;52.514;13.458;2023-01-01T12:09:04;64.90;47.49;77.59;;
71230;Laerm;57282;52.514;13.458;2023-01-01T12:11:38;62.07;40.55;77.29;;
71230;Laerm;57282;52.514;13.458;2023-01-01T12:14:17;60.48;42.73;75.09;;
71230;Laerm;57282;52.514;13.458;2023-01-01T12:16:51;65.61;46.46;77.11;;
71230;Laerm;57282;52.514;13.458;2023-01-01T12:19:26;61.00;41.55;75.67;;
71230;Laerm;57282;52.514;13.458;2023-01-01T12:21:58;66.40;46.88;81.99;;
71230;Laerm;57282;52.514;13.458;2023-01-01T12:24:32;65.71;48.49;78.13;;
71230;Laerm;57282;52.514;13.458;2023-01-01T12:27:16;62.41;42.62;77.37;;
71230;Laerm;57282;52.514;13.458;2023-01-01T12:30:05;64.81;43.47;77.06;;
71230;Laerm;57282;52.514;13.458;2023-01-01T12:33:07;64.47;45.69;75.00;;
71230;Laerm;57282;52.514;13.458;2023-01-01T12:35:52;65.51;41.94;81.73;;
71230;Laerm;57282;52.514;13.458;2023-01-01T12:38:40;64.75;42.25;79.45;;
71230;Laerm;57282;52.514;13.458;2023-01-01T12:41:20;55.75;42.08;69.94;;
71230;Laerm;57282;52.514;13.458;2023-01-01T12:44:05;62.47;43.06;76.98;;
71230;Laerm;57282;52.514;13.458;2023-01-01T12:46:48;60.93;43.26;72.69;;
71230;Laerm;57282;52.514;13.458;2023-01-01T12:49:51;63.38;44.97;75.93;;
71230;Laerm;57282;52.514;13.458;2023-01-01T12:52:39;64.56;46.42;77.68;;
71230;Laerm;57282;52.514;13.458;2023-01-01T12:55:52;63.81;45.95;78.14;;
71230;Laerm;57282;52.514;13.458;2023-01-01T12:58:31;63.39;43.35;85.62;;
71230;Laerm;57282;52.514;13.458;2023-01-01T13:01:17;62.20;45.64;76.54;;
71230;Laerm;57282;52.514;13.458;2023-01-01T13:03:51;63.90;42.55;77.65;;
71230;Laerm;57282;52.514;13.458;2023-01-01T13:06:26;63.41;42.81;76.66;;
71230;Laerm;57282;52.514;13.458;2023-01-01T13:09:04;58.49;42.09;71.25;;
71230;Laerm;57282;52.514;13.458;2023-01-01T13:11:33;64.84;45.70;78.16;;
71230;Laerm;57282;52.514;13.458;2023-01-01T13:14:01;65.70;44.96;96.98;;
71230;Laerm;57282;52.514;13.458;2023-01-01T13:16:34;64.45;44.16;80.06;;
71230;Laerm;57282;52.514;13.458;2023-01-01T13:19:02;65.15;44.13;77.87;;
71230;Laerm;57282;52.514;13.458;2023-01-01T13:21:31;65.13;42.41;81.18;;
71230;Laerm;57282;52.514;13.458;2023-01-01T13:24:18;63.60;45.92;79.68;;
71230;Laerm;57282;52.514;13.458;2023-01-01T13:26:45;64.82;49.18;77.11;;
71230;Laerm;57282;52.514;13.458;2023-01-01T13:29:34;61.26;47.96;72.67;;
71230;Laerm;57282;52.514;13.458;2023-01-01T13:32:06;62.26;44.84;75.87;;
71230;Laerm;57282;52.514;13.458;2023-01-01T13:35:13;62.88;43.06;77.09;;
71230;Laerm;57282;52.514;13.458;2023-01-01T13:37:44;63.87;46.60;75.99;;
71230;Laerm;57282;52.514;13.458;2023-01-01T13:40:47;61.25;43.22;76.35;;
71230;Laerm;57282;52.514;13.458;2023-01-01T13:43:27;63.76;44.04;82.34;;
71230;Laerm;57282;52.514;13.458;2023-01-01T13:45:56;62.12;43.77;78.71;;
71230;Laerm;57282;52.514;13.458;2023-01-01T13:48:45;65.73;42.91;80.67;;
71230;Laerm;57282;52.514;13.458;2023-01-01T13:51:33;64.10;41.98;79.13;;
71230;Laerm;57282;52.514;13.458;2023-01-01T13:54:42;65.86;44.96;79.99;;
71230;Laerm;57282;52.514;13.458;2023-01-01T14:00:34;66.11;44.80;77.78;;
71230;Laerm;57282;52.514;13.458;2023-01-01T14:03:12;60.27;43.75;75.35;;